sensor_id;sensor_type;location;lat;lon;timestamp;P1;durP1;ratioP1;P2;durP2;ratioP2
35304;SDS011;26433;48.034;-1.764;2023-06-19T00:00:07;3.58;;;2.05;;
35304;SDS011;26433;48.034;-1.764;2023-06-19T00:05:15;3.53;;;1.77;;
35304;SDS011;26433;48.034;-1.764;2023-06-19T00:10:19;3.37;;;2.00;;
35304;SDS011;26433;48.034;-1.764;2023-06-19T00:20:31;4.62;;;2.10;;
35304;SDS011;26433;48.034;-1.764;2023-06-19T00:25:37;4.20;;;2.45;;
35304;SDS011;26433;48.034;-1.764;2023-06-19T00:30:42;5.90;;;2.50;;
35304;SDS011;26433;48.034;-1.764;2023-06-19T00:35:50;4.15;;;2.20;;
35304;SDS011;26433;48.034;-1.764;2023-06-19T00:40:53;7.72;;;2.28;;
35304;SDS011;26433;48.034;-1.764;2023-06-19T00:45:59;3.78;;;2.60;;
35304;SDS011;26433;48.034;-1.764;2023-06-19T00:51:04;4.87;;;2.97;;
35304;SDS011;26433;48.034;-1.764;2023-06-19T00:56:08;6.28;;;2.80;;
35304;SDS011;26433;48.034;-1.764;2023-06-19T01:01:13;3.22;;;2.20;;
35304;SDS011;26433;48.034;-1.764;2023-06-19T01:06:20;5.68;;;2.65;;
35304;SDS011;26433;48.034;-1.764;2023-06-19T01:11:28;4.57;;;2.50;;
35304;SDS011;26433;48.034;-1.764;2023-06-19T01:16:36;3.58;;;2.25;;
35304;SDS011;26433;48.034;-1.764;2023-06-19T01:21:40;4.47;;;2.62;;
35304;SDS011;26433;48.034;-1.764;2023-06-19T01:26:47;5.95;;;2.28;;
35304;SDS011;26433;48.034;-1.764;2023-06-19T01:31:52;7.07;;;2.78;;
35304;SDS011;26433;48.034;-1.764;2023-06-19T01:37:02;5.72;;;2.67;;
35304;SDS011;26433;48.034;-1.764;2023-06-19T01:42:09;14.63;;;3.62;;
35304;SDS011;26433;48.034;-1.764;2023-06-19T01:47:13;6.47;;;2.42;;
35304;SDS011;26433;48.034;-1.764;2023-06-19T01:52:21;4.62;;;2.50;;
35304;SDS011;26433;48.034;-1.764;2023-06-19T01:57:27;3.60;;;2.40;;
35304;SDS011;26433;48.034;-1.764;2023-06-19T02:02:31;4.82;;;2.60;;
35304;SDS011;26433;48.034;-1.764;2023-06-19T02:07:35;5.75;;;2.28;;
35304;SDS011;26433;48.034;-1.764;2023-06-19T02:12:40;3.40;;;2.22;;
35304;SDS011;26433;48.034;-1.764;2023-06-19T02:17:44;7.75;;;2.50;;
35304;SDS011;26433;48.034;-1.764;2023-06-19T02:22:48;6.35;;;2.55;;
35304;SDS011;26433;48.034;-1.764;2023-06-19T02:27:53;4.72;;;2.75;;
35304;SDS011;26433;48.034;-1.764;2023-06-19T02:32:57;5.37;;;3.10;;
35304;SDS011;26433;48.034;-1.764;2023-06-19T02:38:01;6.97;;;3.05;;
35304;SDS011;26433;48.034;-1.764;2023-06-19T02:43:08;8.18;;;2.22;;
35304;SDS011;26433;48.034;-1.764;2023-06-19T02:48:11;11.25;;;4.78;;
35304;SDS011;26433;48.034;-1.764;2023-06-19T02:53:15;9.90;;;2.63;;
35304;SDS011;26433;48.034;-1.764;2023-06-19T02:58:21;5.25;;;2.40;;
35304;SDS011;26433;48.034;-1.764;2023-06-19T03:03:24;6.22;;;2.95;;
35304;SDS011;26433;48.034;-1.764;2023-06-19T03:08:29;6.62;;;3.20;;
35304;SDS011;26433;48.034;-1.764;2023-06-19T03:13:43;4.87;;;2.78;;
35304;SDS011;26433;48.034;-1.764;2023-06-19T03:18:48;7.90;;;3.08;;
35304;SDS011;26433;48.034;-1.764;2023-06-19T03:23:55;13.55;;;4.05;;
35304;SDS011;26433;48.034;-1.764;2023-06-19T03:34:05;7.07;;;3.08;;
35304;SDS011;26433;48.034;-1.764;2023-06-19T03:39:10;7.40;;;3.37;;
35304;SDS011;26433;48.034;-1.764;2023-06-19T03:44:16;8.40;;;3.95;;
35304;SDS011;26433;48.034;-1.764;2023-06-19T03:49:20;8.63;;;3.25;;
35304;SDS011;26433;48.034;-1.764;2023-06-19T03:54:24;8.25;;;3.40;;
35304;SDS011;26433;48.034;-1.764;2023-06-19T03:59:30;14.50;;;3.75;;
35304;SDS011;26433;48.034;-1.764;2023-06-19T04:04:34;8.50;;;4.12;;
35304;SDS011;26433;48.034;-1.764;2023-06-19T04:14:43;12.37;;;3.87;;
35304;SDS011;26433;48.034;-1.764;2023-06-19T04:19:47;7.25;;;3.17;;
35304;SDS011;26433;48.034;-1.764;2023-06-19T04:24:53;6.22;;;3.15;;
35304;SDS011;26433;48.034;-1.764;2023-06-19T04:29:59;7.20;;;4.22;;
35304;SDS011;26433;48.034;-1.764;2023-06-19T04:35:03;7.45;;;3.03;;
35304;SDS011;26433;48.034;-1.764;2023-06-19T04:45:14;6.45;;;3.70;;
35304;SDS011;26433;48.034;-1.764;2023-06-19T04:50:17;11.48;;;3.80;;
35304;SDS011;26433;48.034;-1.764;2023-06-19T04:55:21;8.60;;;3.22;;
35304;SDS011;26433;48.034;-1.764;2023-06-19T05:00:28;9.20;;;3.20;;
35304;SDS011;26433;48.034;-1.764;2023-06-19T05:05:32;9.10;;;2.85;;
35304;SDS011;26433;48.034;-1.764;2023-06-19T05:10:36;5.97;;;2.90;;
35304;SDS011;26433;48.034;-1.764;2023-06-19T05:15:41;7.03;;;2.72;;
35304;SDS011;26433;48.034;-1.764;2023-06-19T05:20:45;5.43;;;2.53;;
35304;SDS011;26433;48.034;-1.764;2023-06-19T05:25:49;6.50;;;3.10;;
35304;SDS011;26433;48.034;-1.764;2023-06-19T05:30:54;6.32;;;2.67;;
35304;SDS011;26433;48.034;-1.764;2023-06-19T05:35:59;3.72;;;2.40;;
35304;SDS011;26433;48.034;-1.764;2023-06-19T05:41:03;7.95;;;2.62;;
35304;SDS011;26433;48.034;-1.764;2023-06-19T05:46:10;4.72;;;2.65;;
35304;SDS011;26433;48.034;-1.764;2023-06-19T05:51:14;8.80;;;3.12;;
35304;SDS011;26433;48.034;-1.764;2023-06-19T05:56:18;5.22;;;2.58;;
35304;SDS011;26433;48.034;-1.764;2023-06-19T06:01:23;5.20;;;2.05;;
35304;SDS011;26433;48.034;-1.764;2023-06-19T06:06:29;4.28;;;2.33;;
35304;SDS011;26433;48.034;-1.764;2023-06-19T06:11:33;4.15;;;2.58;;
35304;SDS011;26433;48.034;-1.764;2023-06-19T06:16:39;4.75;;;2.47;;
35304;SDS011;26433;48.034;-1.764;2023-06-19T06:21:42;3.58;;;2.50;;
35304;SDS011;26433;48.034;-1.764;2023-06-19T06:26:46;4.23;;;2.07;;
35304;SDS011;26433;48.034;-1.764;2023-06-19T06:31:51;8.35;;;2.85;;
35304;SDS011;26433;48.034;-1.764;2023-06-19T06:37:06;5.03;;;2.72;;
35304;SDS011;26433;48.034;-1.764;2023-06-19T06:42:10;4.53;;;2.35;;
35304;SDS011;26433;48.034;-1.764;2023-06-19T06:47:15;4.78;;;2.15;;
35304;SDS011;26433;48.034;-1.764;2023-06-19T06:52:19;5.60;;;2.90;;
35304;SDS011;26433;48.034;-1.764;2023-06-19T06:57:23;5.30;;;2.80;;
35304;SDS011;26433;48.034;-1.764;2023-06-19T07:02:28;5.78;;;2.80;;
35304;SDS011;26433;48.034;-1.764;2023-06-19T07:07:32;6.93;;;2.97;;
35304;SDS011;26433;48.034;-1.764;2023-06-19T07:12:43;7.32;;;2.53;;
35304;SDS011;26433;48.034;-1.764;2023-06-19T07:17:49;6.10;;;2.75;;
35304;SDS011;26433;48.034;-1.764;2023-06-19T07:22:53;3.40;;;2.12;;
35304;SDS011;26433;48.034;-1.764;2023-06-19T07:27:57;4.97;;;2.85;;
35304;SDS011;26433;48.034;-1.764;2023-06-19T07:33:02;7.65;;;2.87;;
35304;SDS011;26433;48.034;-1.764;2023-06-19T07:38:06;4.37;;;1.98;;
35304;SDS011;26433;48.034;-1.764;2023-06-19T07:43:10;4.27;;;2.27;;
35304;SDS011;26433;48.034;-1.764;2023-06-19T07:48:15;3.62;;;2.47;;
35304;SDS011;26433;48.034;-1.764;2023-06-19T07:53:19;3.87;;;1.87;;
35304;SDS011;26433;48.034;-1.764;2023-06-19T07:58:23;4.47;;;2.25;;
35304;SDS011;26433;48.034;-1.764;2023-06-19T08:03:29;4.62;;;2.10;;
35304;SDS011;26433;48.034;-1.764;2023-06-19T08:08:33;4.45;;;1.80;;
35304;SDS011;26433;48.034;-1.764;2023-06-19T08:13:37;5.57;;;1.83;;
35304;SDS011;26433;48.034;-1.764;2023-06-19T08:18:43;3.70;;;1.92;;
35304;SDS011;26433;48.034;-1.764;2023-06-19T08:23:48;6.70;;;2.40;;
35304;SDS011;26433;48.034;-1.764;2023-06-19T08:28:52;8.35;;;2.58;;
35304;SDS011;26433;48.034;-1.764;2023-06-19T08:33:57;2.50;;;1.58;;
35304;SDS011;26433;48.034;-1.764;2023-06-19T08:39:01;2.83;;;1.65;;
35304;SDS011;26433;48.034;-1.764;2023-06-19T08:44:05;5.43;;;1.73;;
35304;SDS011;26433;48.034;-1.764;2023-06-19T08:49:11;2.28;;;1.50;;
35304;SDS011;26433;48.034;-1.764;2023-06-19T08:54:17;5.60;;;1.73;;
35304;SDS011;26433;48.034;-1.764;2023-06-19T08:59:21;4.00;;;1.95;;
35304;SDS011;26433;48.034;-1.764;2023-06-19T09:04:26;3.97;;;1.80;;
35304;SDS011;26433;48.034;-1.764;2023-06-19T09:09:30;2.95;;;1.98;;
35304;SDS011;26433;48.034;-1.764;2023-06-19T09:14:35;3.92;;;1.65;;
35304;SDS011;26433;48.034;-1.764;2023-06-19T09:19:48;2.53;;;1.50;;
35304;SDS011;26433;48.034;-1.764;2023-06-19T09:24:52;4.53;;;1.95;;
35304;SDS011;26433;48.034;-1.764;2023-06-19T09:29:56;3.45;;;1.40;;
35304;SDS011;26433;48.034;-1.764;2023-06-19T09:35:02;2.62;;;1.55;;
35304;SDS011;26433;48.034;-1.764;2023-06-19T09:40:06;3.40;;;1.55;;
35304;SDS011;26433;48.034;-1.764;2023-06-19T09:45:12;2.83;;;1.37;;
35304;SDS011;26433;48.034;-1.764;2023-06-19T09:50:22;7.50;;;1.80;;
35304;SDS011;26433;48.034;-1.764;2023-06-19T09:55:29;2.28;;;1.50;;
35304;SDS011;26433;48.034;-1.764;2023-06-19T10:00:34;3.47;;;1.23;;
35304;SDS011;26433;48.034;-1.764;2023-06-19T10:05:40;2.87;;;1.23;;
35304;SDS011;26433;48.034;-1.764;2023-06-19T10:10:47;2.50;;;1.25;;
35304;SDS011;26433;48.034;-1.764;2023-06-19T10:15:51;2.95;;;1.20;;
35304;SDS011;26433;48.034;-1.764;2023-06-19T10:20:57;2.20;;;1.33;;
35304;SDS011;26433;48.034;-1.764;2023-06-19T10:26:00;2.30;;;1.30;;
35304;SDS011;26433;48.034;-1.764;2023-06-19T10:31:05;1.25;;;1.00;;
35304;SDS011;26433;48.034;-1.764;2023-06-19T10:36:15;4.70;;;1.77;;
35304;SDS011;26433;48.034;-1.764;2023-06-19T10:41:20;2.35;;;1.33;;
35304;SDS011;26433;48.034;-1.764;2023-06-19T10:46:28;2.55;;;1.08;;
35304;SDS011;26433;48.034;-1.764;2023-06-19T10:51:35;1.70;;;0.85;;
35304;SDS011;26433;48.034;-1.764;2023-06-19T10:56:39;4.37;;;0.93;;
35304;SDS011;26433;48.034;-1.764;2023-06-19T11:01:45;3.12;;;0.90;;
35304;SDS011;26433;48.034;-1.764;2023-06-19T11:06:52;1.62;;;0.70;;
35304;SDS011;26433;48.034;-1.764;2023-06-19T11:11:55;1.12;;;0.70;;
35304;SDS011;26433;48.034;-1.764;2023-06-19T11:17:00;1.62;;;1.10;;
35304;SDS011;26433;48.034;-1.764;2023-06-19T11:22:06;1.77;;;1.25;;
35304;SDS011;26433;48.034;-1.764;2023-06-19T11:27:16;2.05;;;1.17;;
35304;SDS011;26433;48.034;-1.764;2023-06-19T11:32:21;4.25;;;1.35;;
35304;SDS011;26433;48.034;-1.764;2023-06-19T11:37:29;1.90;;;1.10;;
35304;SDS011;26433;48.034;-1.764;2023-06-19T11:42:32;1.92;;;1.05;;
35304;SDS011;26433;48.034;-1.764;2023-06-19T11:47:36;4.07;;;2.15;;
35304;SDS011;26433;48.034;-1.764;2023-06-19T11:52:41;3.25;;;1.42;;
35304;SDS011;26433;48.034;-1.764;2023-06-19T11:57:46;1.60;;;1.00;;
35304;SDS011;26433;48.034;-1.764;2023-06-19T12:02:50;1.42;;;0.90;;
35304;SDS011;26433;48.034;-1.764;2023-06-19T12:07:57;1.85;;;1.17;;
35304;SDS011;26433;48.034;-1.764;2023-06-19T12:13:04;1.45;;;1.08;;
35304;SDS011;26433;48.034;-1.764;2023-06-19T12:18:07;4.32;;;1.02;;
35304;SDS011;26433;48.034;-1.764;2023-06-19T12:23:15;1.70;;;0.98;;
35304;SDS011;26433;48.034;-1.764;2023-06-19T12:28:19;1.40;;;1.10;;
35304;SDS011;26433;48.034;-1.764;2023-06-19T12:33:23;3.30;;;1.62;;
35304;SDS011;26433;48.034;-1.764;2023-06-19T12:38:28;2.75;;;1.20;;
35304;SDS011;26433;48.034;-1.764;2023-06-19T12:43:32;1.08;;;0.73;;
35304;SDS011;26433;48.034;-1.764;2023-06-19T12:48:36;2.33;;;0.95;;
35304;SDS011;26433;48.034;-1.764;2023-06-19T12:58:44;1.37;;;0.90;;
35304;SDS011;26433;48.034;-1.764;2023-06-19T13:03:48;1.02;;;0.77;;
35304;SDS011;26433;48.034;-1.764;2023-06-19T13:08:53;2.67;;;1.40;;
35304;SDS011;26433;48.034;-1.764;2023-06-19T13:13:57;1.50;;;0.70;;
35304;SDS011;26433;48.034;-1.764;2023-06-19T13:19:01;2.47;;;0.98;;
35304;SDS011;26433;48.034;-1.764;2023-06-19T13:24:06;1.15;;;0.80;;
35304;SDS011;26433;48.034;-1.764;2023-06-19T13:29:10;2.33;;;1.20;;
35304;SDS011;26433;48.034;-1.764;2023-06-19T13:34:14;1.60;;;1.05;;
35304;SDS011;26433;48.034;-1.764;2023-06-19T13:39:21;1.40;;;0.95;;
35304;SDS011;26433;48.034;-1.764;2023-06-19T13:44:25;3.28;;;1.20;;
35304;SDS011;26433;48.034;-1.764;2023-06-19T13:54:35;2.28;;;0.90;;
35304;SDS011;26433;48.034;-1.764;2023-06-19T13:59:39;2.00;;;0.90;;
35304;SDS011;26433;48.034;-1.764;2023-06-19T14:04:44;1.35;;;0.90;;
35304;SDS011;26433;48.034;-1.764;2023-06-19T14:09:49;0.80;;;0.70;;
35304;SDS011;26433;48.034;-1.764;2023-06-19T14:14:55;1.30;;;0.80;;
35304;SDS011;26433;48.034;-1.764;2023-06-19T14:19:59;1.25;;;0.88;;
35304;SDS011;26433;48.034;-1.764;2023-06-19T14:25:04;1.73;;;1.00;;
35304;SDS011;26433;48.034;-1.764;2023-06-19T14:30:09;1.40;;;1.10;;
35304;SDS011;26433;48.034;-1.764;2023-06-19T14:35:13;1.05;;;0.95;;
35304;SDS011;26433;48.034;-1.764;2023-06-19T14:40:18;1.12;;;0.85;;
35304;SDS011;26433;48.034;-1.764;2023-06-19T14:45:22;1.02;;;0.62;;
35304;SDS011;26433;48.034;-1.764;2023-06-19T14:55:31;1.92;;;0.93;;
35304;SDS011;26433;48.034;-1.764;2023-06-19T15:00:34;1.45;;;1.00;;
35304;SDS011;26433;48.034;-1.764;2023-06-19T15:05:40;2.35;;;1.27;;
35304;SDS011;26433;48.034;-1.764;2023-06-19T15:10:45;1.27;;;0.88;;
35304;SDS011;26433;48.034;-1.764;2023-06-19T15:15:48;1.25;;;0.77;;
35304;SDS011;26433;48.034;-1.764;2023-06-19T15:20:53;2.75;;;1.05;;
35304;SDS011;26433;48.034;-1.764;2023-06-19T15:25:58;1.70;;;1.17;;
35304;SDS011;26433;48.034;-1.764;2023-06-19T15:31:02;4.00;;;1.35;;
35304;SDS011;26433;48.034;-1.764;2023-06-19T15:36:06;1.23;;;0.80;;
35304;SDS011;26433;48.034;-1.764;2023-06-19T15:41:12;2.05;;;1.02;;
35304;SDS011;26433;48.034;-1.764;2023-06-19T15:46:15;1.20;;;0.95;;
35304;SDS011;26433;48.034;-1.764;2023-06-19T15:51:19;0.90;;;0.70;;
35304;SDS011;26433;48.034;-1.764;2023-06-19T15:56:24;2.37;;;0.95;;
35304;SDS011;26433;48.034;-1.764;2023-06-19T16:01:29;1.75;;;1.00;;
35304;SDS011;26433;48.034;-1.764;2023-06-19T16:06:33;1.48;;;0.98;;
35304;SDS011;26433;48.034;-1.764;2023-06-19T16:11:38;1.60;;;1.12;;
35304;SDS011;26433;48.034;-1.764;2023-06-19T16:16:41;1.92;;;1.20;;
35304;SDS011;26433;48.034;-1.764;2023-06-19T16:21:45;1.90;;;1.25;;
35304;SDS011;26433;48.034;-1.764;2023-06-19T16:26:50;4.45;;;1.45;;
35304;SDS011;26433;48.034;-1.764;2023-06-19T16:31:54;1.77;;;1.12;;
35304;SDS011;26433;48.034;-1.764;2023-06-19T16:37:10;1.60;;;1.30;;
35304;SDS011;26433;48.034;-1.764;2023-06-19T16:42:15;2.40;;;1.40;;
35304;SDS011;26433;48.034;-1.764;2023-06-19T16:47:21;1.73;;;1.23;;
35304;SDS011;26433;48.034;-1.764;2023-06-19T16:52:25;2.60;;;1.55;;
35304;SDS011;26433;48.034;-1.764;2023-06-19T16:57:30;1.58;;;1.17;;
35304;SDS011;26433;48.034;-1.764;2023-06-19T17:02:34;2.47;;;1.52;;
35304;SDS011;26433;48.034;-1.764;2023-06-19T17:07:38;13.38;;;1.48;;
35304;SDS011;26433;48.034;-1.764;2023-06-19T17:12:43;3.65;;;1.23;;
35304;SDS011;26433;48.034;-1.764;2023-06-19T17:17:47;3.87;;;1.30;;
35304;SDS011;26433;48.034;-1.764;2023-06-19T17:22:51;1.67;;;0.98;;
35304;SDS011;26433;48.034;-1.764;2023-06-19T17:27:56;4.18;;;1.70;;
35304;SDS011;26433;48.034;-1.764;2023-06-19T17:33:00;1.75;;;1.25;;
35304;SDS011;26433;48.034;-1.764;2023-06-19T17:38:04;2.60;;;1.70;;
35304;SDS011;26433;48.034;-1.764;2023-06-19T17:43:09;4.12;;;1.50;;
35304;SDS011;26433;48.034;-1.764;2023-06-19T17:48:13;1.80;;;1.27;;
35304;SDS011;26433;48.034;-1.764;2023-06-19T17:53:17;2.00;;;1.10;;
35304;SDS011;26433;48.034;-1.764;2023-06-19T17:58:22;2.30;;;1.65;;
35304;SDS011;26433;48.034;-1.764;2023-06-19T18:03:26;2.25;;;1.40;;
35304;SDS011;26433;48.034;-1.764;2023-06-19T18:08:30;1.73;;;1.33;;
35304;SDS011;26433;48.034;-1.764;2023-06-19T18:13:35;1.97;;;1.10;;
35304;SDS011;26433;48.034;-1.764;2023-06-19T18:18:39;4.10;;;1.50;;
35304;SDS011;26433;48.034;-1.764;2023-06-19T18:23:42;2.08;;;1.40;;
35304;SDS011;26433;48.034;-1.764;2023-06-19T18:28:47;2.20;;;1.17;;
35304;SDS011;26433;48.034;-1.764;2023-06-19T18:33:51;2.87;;;0.90;;
35304;SDS011;26433;48.034;-1.764;2023-06-19T18:38:56;3.12;;;1.40;;
35304;SDS011;26433;48.034;-1.764;2023-06-19T18:44:01;1.83;;;1.48;;
35304;SDS011;26433;48.034;-1.764;2023-06-19T18:49:05;1.30;;;1.12;;
35304;SDS011;26433;48.034;-1.764;2023-06-19T18:54:08;2.43;;;1.33;;
35304;SDS011;26433;48.034;-1.764;2023-06-19T18:59:14;1.60;;;1.40;;
35304;SDS011;26433;48.034;-1.764;2023-06-19T19:04:17;1.62;;;1.20;;
35304;SDS011;26433;48.034;-1.764;2023-06-19T19:09:21;2.65;;;1.65;;
35304;SDS011;26433;48.034;-1.764;2023-06-19T19:14:26;2.70;;;1.30;;
35304;SDS011;26433;48.034;-1.764;2023-06-19T19:19:30;2.55;;;1.40;;
35304;SDS011;26433;48.034;-1.764;2023-06-19T19:24:34;2.20;;;1.30;;
35304;SDS011;26433;48.034;-1.764;2023-06-19T19:29:39;1.85;;;1.20;;
35304;SDS011;26433;48.034;-1.764;2023-06-19T19:34:43;1.60;;;1.30;;
35304;SDS011;26433;48.034;-1.764;2023-06-19T19:39:46;3.72;;;1.10;;
35304;SDS011;26433;48.034;-1.764;2023-06-19T19:44:52;1.90;;;1.20;;
35304;SDS011;26433;48.034;-1.764;2023-06-19T19:49:56;1.70;;;1.30;;
35304;SDS011;26433;48.034;-1.764;2023-06-19T19:54:59;1.83;;;0.90;;
35304;SDS011;26433;48.034;-1.764;2023-06-19T20:00:06;2.28;;;1.35;;
35304;SDS011;26433;48.034;-1.764;2023-06-19T20:05:10;1.55;;;1.30;;
35304;SDS011;26433;48.034;-1.764;2023-06-19T20:10:14;1.55;;;1.17;;
35304;SDS011;26433;48.034;-1.764;2023-06-19T20:25:27;1.87;;;1.30;;
35304;SDS011;26433;48.034;-1.764;2023-06-19T20:30:32;1.52;;;1.20;;
35304;SDS011;26433;48.034;-1.764;2023-06-19T20:35:36;2.08;;;1.40;;
35304;SDS011;26433;48.034;-1.764;2023-06-19T20:40:40;2.33;;;1.30;;
35304;SDS011;26433;48.034;-1.764;2023-06-19T20:50:49;1.67;;;1.10;;
35304;SDS011;26433;48.034;-1.764;2023-06-19T20:55:54;1.75;;;1.30;;
35304;SDS011;26433;48.034;-1.764;2023-06-19T21:01:00;1.30;;;1.10;;
35304;SDS011;26433;48.034;-1.764;2023-06-19T21:06:03;3.45;;;2.00;;
35304;SDS011;26433;48.034;-1.764;2023-06-19T21:11:09;3.97;;;1.70;;
35304;SDS011;26433;48.034;-1.764;2023-06-19T21:16:14;3.72;;;1.50;;
35304;SDS011;26433;48.034;-1.764;2023-06-19T21:21:18;1.42;;;1.20;;
35304;SDS011;26433;48.034;-1.764;2023-06-19T21:26:22;2.80;;;1.43;;
35304;SDS011;26433;48.034;-1.764;2023-06-19T21:31:28;2.62;;;1.73;;
35304;SDS011;26433;48.034;-1.764;2023-06-19T21:36:31;2.65;;;1.50;;
35304;SDS011;26433;48.034;-1.764;2023-06-19T21:41:35;2.35;;;1.50;;
35304;SDS011;26433;48.034;-1.764;2023-06-19T21:46:41;2.40;;;1.85;;
35304;SDS011;26433;48.034;-1.764;2023-06-19T21:51:45;2.05;;;1.52;;
35304;SDS011;26433;48.034;-1.764;2023-06-19T21:56:48;1.95;;;1.42;;
35304;SDS011;26433;48.034;-1.764;2023-06-19T22:01:53;2.63;;;1.40;;
35304;SDS011;26433;48.034;-1.764;2023-06-19T22:06:57;3.40;;;1.70;;
35304;SDS011;26433;48.034;-1.764;2023-06-19T22:12:01;2.37;;;1.47;;
35304;SDS011;26433;48.034;-1.764;2023-06-19T22:17:07;2.90;;;1.90;;
35304;SDS011;26433;48.034;-1.764;2023-06-19T22:22:10;2.12;;;1.65;;
35304;SDS011;26433;48.034;-1.764;2023-06-19T22:27:14;1.62;;;1.17;;
35304;SDS011;26433;48.034;-1.764;2023-06-19T22:32:19;2.10;;;1.60;;
35304;SDS011;26433;48.034;-1.764;2023-06-19T22:37:23;1.87;;;1.48;;
35304;SDS011;26433;48.034;-1.764;2023-06-19T22:42:27;1.95;;;1.30;;
35304;SDS011;26433;48.034;-1.764;2023-06-19T22:47:32;4.67;;;1.60;;
35304;SDS011;26433;48.034;-1.764;2023-06-19T22:52:40;2.15;;;1.42;;
35304;SDS011;26433;48.034;-1.764;2023-06-19T22:57:44;2.10;;;1.67;;
35304;SDS011;26433;48.034;-1.764;2023-06-19T23:02:49;1.85;;;1.33;;
35304;SDS011;26433;48.034;-1.764;2023-06-19T23:07:53;1.90;;;1.45;;
35304;SDS011;26433;48.034;-1.764;2023-06-19T23:18:02;1.40;;;0.65;;
35304;SDS011;26433;48.034;-1.764;2023-06-19T23:23:08;3.10;;;1.12;;
35304;SDS011;26433;48.034;-1.764;2023-06-19T23:28:12;1.30;;;1.17;;
35304;SDS011;26433;48.034;-1.764;2023-06-19T23:33:17;2.17;;;1.12;;
35304;SDS011;26433;48.034;-1.764;2023-06-19T23:38:20;1.87;;;1.17;;
35304;SDS011;26433;48.034;-1.764;2023-06-19T23:43:24;1.80;;;1.10;;
35304;SDS011;26433;48.034;-1.764;2023-06-19T23:48:29;1.23;;;1.10;;
35304;SDS011;26433;48.034;-1.764;2023-06-19T23:53:32;1.20;;;1.05;;
35304;SDS011;26433;48.034;-1.764;2023-06-19T23:58:36;1.42;;;1.10;;
